createdAt,value
2023-06-29T00:03:07.736Z,90.66
2023-06-29T00:08:10.916Z,89.86
2023-06-29T00:13:12.732Z,90.18
2023-06-29T00:18:19.680Z,90.44
2023-06-29T00:23:21.409Z,90.67
2023-06-29T00:28:23.245Z,90.41
2023-06-29T00:33:25.212Z,90.43
2023-06-29T00:38:27.392Z,90.27
2023-06-29T00:43:29.480Z,90.35
2023-06-29T00:48:31.456Z,90.34
2023-06-29T00:53:33.640Z,90.09
2023-06-29T00:58:36.335Z,90.05
2023-06-29T01:03:39.318Z,90.06
2023-06-29T01:08:46.781Z,89.95
2023-06-29T01:13:51.735Z,89.74
2023-06-29T01:18:55.951Z,89.47
2023-06-29T01:23:59.757Z,89.32
2023-06-29T01:29:01.631Z,89.21
2023-06-29T01:34:03.361Z,88.97
2023-06-29T01:39:16.746Z,89.60
2023-06-29T01:44:19.650Z,89.79
2023-06-29T01:49:21.729Z,90.18
2023-06-29T01:54:23.609Z,90.06
2023-06-29T01:59:26.097Z,89.93
2023-06-29T02:04:28.189Z,89.99
2023-06-29T02:09:30.362Z,89.98
2023-06-29T02:14:32.139Z,89.91
2023-06-29T02:19:33.954Z,89.92
2023-06-29T02:24:35.918Z,89.66
2023-06-29T02:29:38.204Z,89.19
2023-06-29T02:34:40.200Z,88.97
2023-06-29T02:39:42.145Z,88.81
2023-06-29T02:44:44.220Z,88.59
2023-06-29T02:49:46.096Z,88.42
2023-06-29T02:54:48.083Z,88.10
2023-06-29T02:59:49.852Z,87.95
2023-06-29T03:04:52.135Z,87.80
2023-06-29T03:09:53.929Z,87.49
2023-06-29T03:14:55.682Z,87.08
2023-06-29T03:19:57.673Z,87.08
2023-06-29T03:24:59.542Z,86.98
2023-06-29T03:30:01.453Z,86.73
2023-06-29T03:35:04.734Z,86.39
2023-06-29T03:40:08.045Z,85.83
2023-06-29T03:45:10.549Z,84.21
2023-06-29T03:50:12.556Z,81.09
2023-06-29T03:55:14.703Z,77.13
2023-06-29T04:00:17.293Z,73.02
2023-06-29T04:05:19.168Z,72.95
2023-06-29T04:10:21.366Z,72.28
2023-06-29T04:15:23.336Z,71.72
2023-06-29T04:20:25.421Z,72.78
2023-06-29T04:25:27.500Z,71.73
2023-06-29T04:30:29.382Z,70.41
2023-06-29T04:35:31.557Z,67.91
2023-06-29T04:40:33.436Z,63.15
2023-06-29T04:45:35.822Z,58.37
2023-06-29T04:50:38.422Z,54.34
2023-06-29T04:55:40.397Z,50.20
2023-06-29T05:00:42.271Z,48.27
2023-06-29T05:05:45.499Z,44.99
2023-06-29T05:10:47.668Z,43.10
2023-06-29T05:15:49.544Z,43.03
2023-06-29T05:20:51.274Z,40.72
2023-06-29T05:25:53.206Z,38.72
2023-06-29T05:30:55.073Z,37.28
2023-06-29T05:35:56.969Z,36.65
2023-06-29T05:41:01.444Z,36.31
2023-06-29T05:46:04.954Z,36.99
2023-06-29T05:51:07.595Z,35.14
2023-06-29T05:56:09.881Z,34.22
2023-06-29T06:01:12.578Z,33.60
2023-06-29T06:06:14.869Z,34.56
2023-06-29T06:11:16.746Z,36.70
2023-06-29T06:16:19.693Z,38.17
2023-06-29T06:21:21.731Z,36.78
2023-06-29T06:26:23.627Z,35.77
2023-06-29T06:31:33.635Z,33.56
2023-06-29T06:36:37.188Z,33.89
2023-06-29T06:41:39.224Z,33.96
2023-06-29T06:46:41.322Z,32.71
2023-06-29T06:51:43.740Z,31.83
2023-06-29T06:56:45.714Z,30.70
2023-06-29T07:01:48.316Z,29.66
2023-06-29T07:06:50.227Z,28.49
2023-06-29T07:11:52.274Z,27.96
2023-06-29T07:16:55.729Z,27.99
2023-06-29T07:27:02.692Z,26.49
2023-06-29T07:32:05.635Z,26.02
2023-06-29T07:37:08.207Z,25.02
2023-06-29T07:42:10.107Z,24.37
2023-06-29T07:47:12.102Z,23.89
2023-06-29T07:52:14.251Z,24.27
2023-06-29T08:02:21.693Z,24.21
2023-06-29T08:07:24.074Z,24.16
2023-06-29T08:12:26.066Z,24.47
2023-06-29T08:17:30.826Z,23.74
2023-06-29T08:22:32.788Z,23.81
2023-06-29T08:27:36.408Z,24.17
2023-06-29T08:32:38.420Z,24.88
2023-06-29T08:37:40.688Z,24.23
2023-06-29T08:42:43.165Z,24.88
2023-06-29T08:47:51.895Z,24.54
2023-06-29T08:52:55.468Z,25.03
2023-06-29T08:57:57.833Z,25.06
2023-06-29T09:03:00.638Z,24.91
2023-06-29T09:08:03.501Z,26.81
2023-06-29T09:13:06.939Z,28.19
2023-06-29T09:18:09.147Z,28.79
2023-06-29T09:23:13.654Z,29.44
2023-06-29T09:28:15.831Z,29.18
2023-06-29T09:33:19.298Z,29.56
2023-06-29T09:38:21.119Z,29.46
2023-06-29T09:43:28.480Z,31.04
2023-06-29T09:53:37.810Z,35.42
2023-06-29T09:58:40.509Z,35.76
2023-06-29T10:03:42.706Z,37.29
2023-06-29T10:08:50.914Z,39.62
2023-06-29T10:13:55.254Z,39.47
2023-06-29T10:19:04.355Z,39.12
2023-06-29T10:24:07.378Z,37.88
2023-06-29T10:29:10.225Z,38.87
2023-06-29T10:34:14.031Z,40.07
2023-06-29T10:39:41.307Z,41.01
2023-06-29T10:44:47.524Z,40.32
2023-06-29T10:49:57.141Z,40.42
2023-06-29T10:55:13.555Z,40.44
2023-06-29T11:00:16.755Z,41.26
2023-06-29T11:05:20.624Z,41.86
2023-06-29T11:10:23.284Z,41.29
2023-06-29T11:15:28.131Z,40.19
2023-06-29T11:20:30.721Z,40.19
2023-06-29T11:25:33.249Z,39.38
2023-06-29T11:30:40.336Z,38.54
2023-06-29T11:35:44.089Z,39.39
2023-06-29T11:40:46.015Z,39.19
2023-06-29T11:45:49.629Z,39.04
2023-06-29T11:50:51.824Z,37.92
2023-06-29T11:55:55.342Z,37.92
2023-06-29T12:00:57.598Z,38.77
2023-06-29T12:06:01.347Z,37.69
2023-06-29T12:11:04.306Z,39.10
2023-06-29T12:21:18.126Z,38.20
2023-06-29T12:26:21.951Z,38.12
2023-06-29T12:31:30.331Z,38.36
2023-06-29T12:36:33.896Z,38.43
2023-06-29T12:41:36.116Z,39.48
2023-06-29T12:46:38.116Z,39.05
2023-06-29T12:51:40.251Z,39.21
2023-06-29T12:56:42.945Z,40.53
2023-06-29T13:01:45.245Z,40.39
2023-06-29T13:06:47.230Z,40.26
2023-06-29T13:11:49.195Z,40.09
2023-06-29T13:16:51.404Z,41.14
2023-06-29T13:21:56.774Z,41.59
2023-06-29T13:26:59.122Z,40.64
2023-06-29T13:32:01.102Z,40.76
2023-06-29T13:37:03.697Z,40.32
2023-06-29T13:42:10.586Z,39.82
2023-06-29T13:47:18.584Z,39.51
2023-06-29T13:52:20.486Z,39.64
2023-06-29T13:57:23.648Z,41.12
2023-06-29T14:02:28.652Z,41.21
2023-06-29T14:07:30.807Z,40.89
2023-06-29T14:12:33.939Z,42.10
2023-06-29T14:17:36.808Z,41.95
2023-06-29T14:22:39.671Z,42.51
2023-06-29T14:27:42.180Z,42.61
2023-06-29T14:32:44.648Z,43.22
2023-06-29T14:37:46.904Z,44.25
2023-06-29T14:42:48.893Z,43.69
2023-06-29T14:47:50.907Z,44.27
2023-06-29T14:52:52.951Z,45.08
2023-06-29T14:57:54.823Z,46.79
2023-06-29T15:02:56.634Z,45.95
2023-06-29T15:07:58.621Z,45.61
2023-06-29T15:13:00.667Z,45.50
2023-06-29T15:18:02.705Z,45.03
2023-06-29T15:23:04.624Z,45.64
2023-06-29T15:28:09.367Z,45.29
2023-06-29T15:33:11.504Z,45.49
2023-06-29T15:38:14.246Z,45.00
2023-06-29T15:43:18.709Z,45.44
2023-06-29T15:48:21.850Z,46.18
2023-06-29T15:53:24.395Z,46.90
2023-06-29T15:58:27.850Z,47.37
2023-06-29T16:03:29.994Z,46.87
2023-06-29T16:08:32.092Z,46.88
2023-06-29T16:13:34.079Z,46.81
2023-06-29T16:18:35.917Z,46.84
2023-06-29T16:23:38.621Z,47.05
2023-06-29T16:28:40.712Z,46.97
2023-06-29T16:33:43.605Z,47.05
2023-06-29T16:38:46.101Z,46.97
2023-06-29T16:43:53.127Z,47.28
2023-06-29T16:48:57.841Z,47.53
2023-06-29T16:53:59.817Z,47.32
2023-06-29T16:59:02.003Z,47.50
2023-06-29T17:04:04.285Z,47.32
2023-06-29T17:09:06.273Z,47.21
2023-06-29T17:14:08.253Z,47.77
2023-06-29T17:19:11.294Z,47.82
2023-06-29T17:24:13.332Z,47.58
2023-06-29T17:29:15.821Z,47.69
2023-06-29T17:34:18.410Z,48.04
2023-06-29T17:39:22.335Z,47.84
2023-06-29T17:44:24.484Z,48.34
2023-06-29T17:49:27.318Z,49.11
2023-06-29T17:54:29.617Z,49.20
2023-06-29T17:59:31.997Z,49.44
2023-06-29T18:04:34.139Z,49.49
2023-06-29T18:09:36.569Z,50.25
2023-06-29T18:14:38.857Z,50.53
2023-06-29T18:19:40.732Z,50.32
2023-06-29T18:24:42.718Z,50.94
2023-06-29T18:29:45.221Z,51.26
2023-06-29T18:34:48.107Z,51.55
2023-06-29T18:39:49.880Z,52.77
2023-06-29T18:44:53.086Z,51.84
2023-06-29T18:49:56.399Z,53.19
2023-06-29T18:55:01.673Z,54.72
2023-06-29T19:00:04.396Z,54.60
2023-06-29T19:05:08.432Z,54.65
2023-06-29T19:10:12.004Z,54.98
2023-06-29T19:15:14.912Z,56.51
2023-06-29T19:20:18.212Z,57.26
2023-06-29T19:25:20.193Z,59.49
2023-06-29T19:30:22.182Z,59.34
2023-06-29T19:35:24.979Z,59.22
2023-06-29T19:40:28.411Z,59.61
2023-06-29T19:45:31.354Z,60.30
2023-06-29T19:50:33.889Z,59.75
2023-06-29T19:55:36.275Z,60.62
2023-06-29T20:00:38.139Z,60.73
2023-06-29T20:05:41.435Z,60.96
2023-06-29T20:10:43.546Z,61.28
2023-06-29T20:15:46.554Z,61.45
2023-06-29T20:20:48.628Z,61.38
2023-06-29T20:25:51.940Z,61.85
2023-06-29T20:30:55.153Z,62.59
2023-06-29T20:35:58.058Z,63.25
2023-06-29T20:41:00.737Z,63.98
2023-06-29T20:46:03.197Z,63.89
2023-06-29T20:51:16.881Z,65.21
2023-06-29T20:56:21.117Z,65.38
2023-06-29T21:01:24.418Z,64.67
2023-06-29T21:06:26.920Z,64.76
2023-06-29T21:11:31.338Z,65.15
2023-06-29T21:16:34.886Z,65.20
2023-06-29T21:21:37.359Z,64.59
2023-06-29T21:26:39.359Z,67.90
2023-06-29T21:31:42.656Z,71.31
2023-06-29T21:36:45.042Z,68.87
2023-06-29T21:41:47.324Z,69.10
2023-06-29T21:46:49.618Z,68.96
2023-06-29T21:51:51.846Z,65.51
2023-06-29T21:56:54.552Z,65.78
2023-06-29T22:01:57.316Z,67.04
2023-06-29T22:07:11.676Z,67.92
2023-06-29T22:12:17.738Z,68.04
2023-06-29T22:17:20.438Z,67.91
2023-06-29T22:22:22.208Z,68.49
2023-06-29T22:27:23.882Z,67.95
2023-06-29T22:32:25.984Z,68.95
2023-06-29T22:37:28.148Z,69.25
2023-06-29T22:42:30.332Z,69.47
2023-06-29T22:47:32.461Z,69.87
2023-06-29T22:52:34.499Z,69.32
2023-06-29T22:57:36.479Z,69.76
2023-06-29T23:02:38.818Z,70.06
2023-06-29T23:07:44.119Z,71.08
2023-06-29T23:12:48.562Z,73.51
2023-06-29T23:17:50.376Z,74.39
2023-06-29T23:22:52.895Z,74.32
2023-06-29T23:27:54.901Z,73.65
2023-06-29T23:32:56.683Z,72.93
2023-06-29T23:37:58.863Z,72.58
2023-06-29T23:43:05.705Z,71.77
2023-06-29T23:48:07.794Z,72.19
2023-06-29T23:53:09.616Z,72.31
2023-06-29T23:58:11.394Z,72.12
